sensor_id;sensor_type;location;lat;lon;timestamp;pressure;altitude;pressure_sealevel;temperature;humidity
71392;BME280;59205;50.610;12.638;2022-08-07T00:00:35;96589.50;;;11.59;73.60
71392;BME280;59205;50.610;12.638;2022-08-07T00:03:01;96584.41;;;11.83;73.43
71392;BME280;59205;50.610;12.638;2022-08-07T00:05:26;96582.16;;;11.81;72.63
71392;BME280;59205;50.610;12.638;2022-08-07T00:07:53;96583.00;;;11.78;72.26
71392;BME280;59205;50.610;12.638;2022-08-07T00:10:19;96584.72;;;11.63;73.33
71392;BME280;59205;50.610;12.638;2022-08-07T00:12:45;96586.59;;;11.54;72.93
71392;BME280;59205;50.610;12.638;2022-08-07T00:15:11;96588.22;;;11.51;72.58
71392;BME280;59205;50.610;12.638;2022-08-07T00:17:36;96581.63;;;11.40;72.40
71392;BME280;59205;50.610;12.638;2022-08-07T00:20:03;96576.00;;;11.68;72.46
71392;BME280;59205;50.610;12.638;2022-08-07T00:22:29;96574.03;;;11.90;71.79
71392;BME280;59205;50.610;12.638;2022-08-07T00:24:54;96578.41;;;11.88;71.62
71392;BME280;59205;50.610;12.638;2022-08-07T00:27:20;96565.47;;;11.92;71.86
71392;BME280;59205;50.610;12.638;2022-08-07T00:29:45;96569.25;;;11.39;72.58
71392;BME280;59205;50.610;12.638;2022-08-07T00:32:11;96574.72;;;11.26;73.08
71392;BME280;59205;50.610;12.638;2022-08-07T00:34:38;96564.88;;;11.54;73.57
71392;BME280;59205;50.610;12.638;2022-08-07T00:37:03;96560.28;;;11.63;73.04
71392;BME280;59205;50.610;12.638;2022-08-07T00:39:29;96557.72;;;11.81;73.22
71392;BME280;59205;50.610;12.638;2022-08-07T00:41:56;96565.75;;;11.51;73.12
71392;BME280;59205;50.610;12.638;2022-08-07T00:44:24;96553.13;;;11.23;73.92
71392;BME280;59205;50.610;12.638;2022-08-07T00:46:50;96563.63;;;11.33;73.13
71392;BME280;59205;50.610;12.638;2022-08-07T00:49:16;96553.50;;;11.12;73.65
71392;BME280;59205;50.610;12.638;2022-08-07T00:51:42;96555.63;;;11.51;74.36
71392;BME280;59205;50.610;12.638;2022-08-07T00:54:08;96556.72;;;10.86;74.67
71392;BME280;59205;50.610;12.638;2022-08-07T00:56:34;96560.25;;;11.08;75.33
71392;BME280;59205;50.610;12.638;2022-08-07T00:59:00;96561.66;;;11.00;75.62
71392;BME280;59205;50.610;12.638;2022-08-07T01:01:26;96554.75;;;10.86;75.70
71392;BME280;59205;50.610;12.638;2022-08-07T01:03:52;96556.47;;;10.93;75.04
71392;BME280;59205;50.610;12.638;2022-08-07T01:06:19;96553.38;;;10.69;75.11
71392;BME280;59205;50.610;12.638;2022-08-07T01:08:45;96546.88;;;11.13;75.09
71392;BME280;59205;50.610;12.638;2022-08-07T01:11:14;96555.19;;;10.72;74.67
71392;BME280;59205;50.610;12.638;2022-08-07T01:13:40;96551.13;;;11.02;75.47
71392;BME280;59205;50.610;12.638;2022-08-07T01:16:06;96552.78;;;10.99;75.44
71392;BME280;59205;50.610;12.638;2022-08-07T01:18:33;96559.06;;;11.09;75.46
71392;BME280;59205;50.610;12.638;2022-08-07T01:21:16;96545.13;;;10.73;74.43
71392;BME280;59205;50.610;12.638;2022-08-07T01:23:44;96549.31;;;10.99;74.17
71392;BME280;59205;50.610;12.638;2022-08-07T01:26:13;96553.63;;;11.09;72.12
71392;BME280;59205;50.610;12.638;2022-08-07T01:28:41;96542.97;;;10.80;73.51
71392;BME280;59205;50.610;12.638;2022-08-07T01:31:08;96544.47;;;10.81;73.34
71392;BME280;59205;50.610;12.638;2022-08-07T01:33:34;96553.50;;;10.66;73.27
71392;BME280;59205;50.610;12.638;2022-08-07T01:36:00;96540.78;;;10.88;72.95
71392;BME280;59205;50.610;12.638;2022-08-07T01:38:27;96549.03;;;10.72;73.71
71392;BME280;59205;50.610;12.638;2022-08-07T01:40:54;96548.59;;;10.61;73.01
71392;BME280;59205;50.610;12.638;2022-08-07T01:43:22;96551.00;;;10.46;73.71
71392;BME280;59205;50.610;12.638;2022-08-07T01:45:48;96548.69;;;10.82;73.95
71392;BME280;59205;50.610;12.638;2022-08-07T01:48:14;96553.47;;;10.78;75.39
71392;BME280;59205;50.610;12.638;2022-08-07T01:50:41;96541.56;;;10.63;75.82
71392;BME280;59205;50.610;12.638;2022-08-07T01:53:10;96546.66;;;10.61;75.23
71392;BME280;59205;50.610;12.638;2022-08-07T01:55:43;96545.47;;;10.62;75.79
71392;BME280;59205;50.610;12.638;2022-08-07T01:58:12;96539.72;;;10.73;75.65
71392;BME280;59205;50.610;12.638;2022-08-07T02:00:40;96545.69;;;10.30;76.34
71392;BME280;59205;50.610;12.638;2022-08-07T02:03:09;96541.91;;;10.53;76.43
71392;BME280;59205;50.610;12.638;2022-08-07T02:05:43;96535.19;;;10.57;76.05
71392;BME280;59205;50.610;12.638;2022-08-07T02:08:13;96536.91;;;10.64;76.56
71392;BME280;59205;50.610;12.638;2022-08-07T02:10:41;96543.53;;;10.50;75.98
71392;BME280;59205;50.610;12.638;2022-08-07T02:13:08;96536.06;;;10.54;77.26
71392;BME280;59205;50.610;12.638;2022-08-07T02:15:36;96541.47;;;10.42;75.75
71392;BME280;59205;50.610;12.638;2022-08-07T02:18:04;96542.00;;;10.49;76.83
71392;BME280;59205;50.610;12.638;2022-08-07T02:20:32;96543.66;;;10.22;76.45
71392;BME280;59205;50.610;12.638;2022-08-07T02:23:01;96547.75;;;10.26;76.44
71392;BME280;59205;50.610;12.638;2022-08-07T02:25:29;96546.56;;;10.27;77.22
71392;BME280;59205;50.610;12.638;2022-08-07T02:27:56;96544.78;;;9.96;77.83
71392;BME280;59205;50.610;12.638;2022-08-07T02:30:23;96547.75;;;10.02;77.25
71392;BME280;59205;50.610;12.638;2022-08-07T02:32:50;96541.31;;;9.96;77.47
71392;BME280;59205;50.610;12.638;2022-08-07T02:35:16;96541.97;;;10.00;77.96
71392;BME280;59205;50.610;12.638;2022-08-07T02:37:44;96533.78;;;10.03;78.40
71392;BME280;59205;50.610;12.638;2022-08-07T02:40:11;96536.03;;;10.17;77.82
71392;BME280;59205;50.610;12.638;2022-08-07T02:42:37;96531.31;;;10.21;77.94
71392;BME280;59205;50.610;12.638;2022-08-07T02:45:06;96530.84;;;10.10;77.62
71392;BME280;59205;50.610;12.638;2022-08-07T02:47:32;96523.97;;;9.81;78.61
71392;BME280;59205;50.610;12.638;2022-08-07T02:49:58;96529.28;;;9.97;78.22
71392;BME280;59205;50.610;12.638;2022-08-07T02:52:37;96521.44;;;10.02;77.82
71392;BME280;59205;50.610;12.638;2022-08-07T02:55:08;96515.25;;;9.61;78.88
71392;BME280;59205;50.610;12.638;2022-08-07T02:57:35;96522.72;;;10.10;77.90
71392;BME280;59205;50.610;12.638;2022-08-07T03:00:03;96519.09;;;9.88;78.49
71392;BME280;59205;50.610;12.638;2022-08-07T03:02:28;96518.59;;;10.06;78.02
71392;BME280;59205;50.610;12.638;2022-08-07T03:04:55;96512.44;;;10.18;76.43
71392;BME280;59205;50.610;12.638;2022-08-07T03:07:20;96514.88;;;10.00;77.58
71392;BME280;59205;50.610;12.638;2022-08-07T03:09:46;96516.16;;;9.83;78.59
71392;BME280;59205;50.610;12.638;2022-08-07T03:12:13;96510.19;;;9.75;76.74
71392;BME280;59205;50.610;12.638;2022-08-07T03:14:40;96504.75;;;9.50;77.02
71392;BME280;59205;50.610;12.638;2022-08-07T03:17:07;96505.59;;;9.47;76.71
71392;BME280;59205;50.610;12.638;2022-08-07T03:19:33;96505.25;;;9.86;77.52
71392;BME280;59205;50.610;12.638;2022-08-07T03:22:02;96499.06;;;9.86;77.70
71392;BME280;59205;50.610;12.638;2022-08-07T03:24:27;96502.66;;;9.95;77.74
71392;BME280;59205;50.610;12.638;2022-08-07T03:26:54;96506.66;;;9.91;77.67
71392;BME280;59205;50.610;12.638;2022-08-07T03:29:23;96496.00;;;9.71;77.90
71392;BME280;59205;50.610;12.638;2022-08-07T03:31:50;96503.25;;;9.62;78.89
71392;BME280;59205;50.610;12.638;2022-08-07T03:34:16;96493.91;;;9.50;79.08
71392;BME280;59205;50.610;12.638;2022-08-07T03:36:44;96505.53;;;9.63;79.00
71392;BME280;59205;50.610;12.638;2022-08-07T03:39:11;96502.06;;;9.63;80.27
71392;BME280;59205;50.610;12.638;2022-08-07T03:41:38;96498.03;;;9.55;80.08
71392;BME280;59205;50.610;12.638;2022-08-07T03:44:04;96498.50;;;9.78;78.21
71392;BME280;59205;50.610;12.638;2022-08-07T03:46:31;96500.66;;;9.58;79.81
71392;BME280;59205;50.610;12.638;2022-08-07T03:48:56;96497.81;;;10.03;78.26
71392;BME280;59205;50.610;12.638;2022-08-07T03:51:23;96497.06;;;9.49;79.95
71392;BME280;59205;50.610;12.638;2022-08-07T03:53:50;96494.63;;;9.79;79.25
71392;BME280;59205;50.610;12.638;2022-08-07T03:56:21;96496.75;;;9.59;79.88
71392;BME280;59205;50.610;12.638;2022-08-07T03:58:48;96502.38;;;9.65;80.12
71392;BME280;59205;50.610;12.638;2022-08-07T04:01:15;96499.25;;;9.66;81.50
71392;BME280;59205;50.610;12.638;2022-08-07T04:03:41;96502.78;;;9.92;80.40
71392;BME280;59205;50.610;12.638;2022-08-07T04:06:08;96499.16;;;9.70;79.43
71392;BME280;59205;50.610;12.638;2022-08-07T04:08:34;96501.13;;;9.94;79.67
71392;BME280;59205;50.610;12.638;2022-08-07T04:11:00;96494.59;;;9.67;79.42
71392;BME280;59205;50.610;12.638;2022-08-07T04:13:26;96500.84;;;10.05;79.21
71392;BME280;59205;50.610;12.638;2022-08-07T04:15:52;96504.41;;;10.02;78.05
71392;BME280;59205;50.610;12.638;2022-08-07T04:18:17;96510.88;;;9.92;78.84
71392;BME280;59205;50.610;12.638;2022-08-07T04:20:43;96510.94;;;10.17;78.08
71392;BME280;59205;50.610;12.638;2022-08-07T04:23:09;96513.31;;;10.02;78.39
71392;BME280;59205;50.610;12.638;2022-08-07T04:25:35;96509.19;;;10.35;78.30
71392;BME280;59205;50.610;12.638;2022-08-07T04:28:07;96516.56;;;10.22;78.79
71392;BME280;59205;50.610;12.638;2022-08-07T04:30:34;96511.00;;;10.50;77.49
71392;BME280;59205;50.610;12.638;2022-08-07T04:33:05;96513.50;;;10.20;77.96
71392;BME280;59205;50.610;12.638;2022-08-07T04:35:31;96517.53;;;10.16;77.38
71392;BME280;59205;50.610;12.638;2022-08-07T04:37:56;96518.94;;;10.20;77.75
71392;BME280;59205;50.610;12.638;2022-08-07T04:40:22;96516.88;;;10.24;77.68
71392;BME280;59205;50.610;12.638;2022-08-07T04:42:47;96519.25;;;10.59;76.68
71392;BME280;59205;50.610;12.638;2022-08-07T04:45:13;96526.72;;;10.55;76.76
71392;BME280;59205;50.610;12.638;2022-08-07T04:48:09;96525.19;;;10.42;76.53
71392;BME280;59205;50.610;12.638;2022-08-07T04:50:41;96533.53;;;10.72;74.38
71392;BME280;59205;50.610;12.638;2022-08-07T04:53:30;96532.94;;;11.24;73.41
71392;BME280;59205;50.610;12.638;2022-08-07T04:56:04;96530.81;;;11.19;72.54
71392;BME280;59205;50.610;12.638;2022-08-07T05:01:54;96528.28;;;11.24;73.00
71392;BME280;59205;50.610;12.638;2022-08-07T05:04:37;96531.84;;;11.34;72.86
71392;BME280;59205;50.610;12.638;2022-08-07T05:07:42;96519.47;;;11.33;72.75
71392;BME280;59205;50.610;12.638;2022-08-07T05:10:25;96520.94;;;11.89;68.00
71392;BME280;59205;50.610;12.638;2022-08-07T05:15:28;96529.97;;;11.65;69.82
71392;BME280;59205;50.610;12.638;2022-08-07T05:18:08;96519.13;;;11.95;69.85
71392;BME280;59205;50.610;12.638;2022-08-07T05:20:50;96529.38;;;12.12;66.60
71392;BME280;59205;50.610;12.638;2022-08-07T05:23:26;96532.22;;;12.18;67.18
71392;BME280;59205;50.610;12.638;2022-08-07T05:25:55;96529.63;;;12.05;66.83
71392;BME280;59205;50.610;12.638;2022-08-07T05:28:22;96527.91;;;11.99;67.01
71392;BME280;59205;50.610;12.638;2022-08-07T05:30:50;96522.22;;;11.76;68.12
71392;BME280;59205;50.610;12.638;2022-08-07T05:33:17;96527.44;;;11.70;68.52
71392;BME280;59205;50.610;12.638;2022-08-07T05:35:44;96527.56;;;11.88;69.26
71392;BME280;59205;50.610;12.638;2022-08-07T05:38:10;96525.66;;;11.97;68.23
71392;BME280;59205;50.610;12.638;2022-08-07T05:40:37;96531.03;;;12.19;68.15
71392;BME280;59205;50.610;12.638;2022-08-07T05:43:03;96532.22;;;12.48;69.36
71392;BME280;59205;50.610;12.638;2022-08-07T05:45:29;96531.47;;;12.48;69.85
71392;BME280;59205;50.610;12.638;2022-08-07T05:47:56;96532.09;;;13.09;66.23
71392;BME280;59205;50.610;12.638;2022-08-07T05:50:22;96537.72;;;13.33;64.17
71392;BME280;59205;50.610;12.638;2022-08-07T05:52:47;96541.28;;;12.94;65.51
71392;BME280;59205;50.610;12.638;2022-08-07T05:55:13;96531.66;;;13.20;66.21
71392;BME280;59205;50.610;12.638;2022-08-07T05:57:39;96528.75;;;13.14;64.92
71392;BME280;59205;50.610;12.638;2022-08-07T06:00:07;96537.84;;;13.47;65.71
71392;BME280;59205;50.610;12.638;2022-08-07T06:02:34;96542.22;;;13.71;64.86
71392;BME280;59205;50.610;12.638;2022-08-07T06:05:11;96546.69;;;14.10;60.76
71392;BME280;59205;50.610;12.638;2022-08-07T06:07:38;96542.63;;;14.06;62.04
71392;BME280;59205;50.610;12.638;2022-08-07T06:10:04;96534.28;;;14.18;60.85
71392;BME280;59205;50.610;12.638;2022-08-07T06:12:30;96532.38;;;14.42;59.92
71392;BME280;59205;50.610;12.638;2022-08-07T06:14:57;96542.28;;;14.31;61.04
71392;BME280;59205;50.610;12.638;2022-08-07T06:17:23;96539.88;;;14.56;57.52
71392;BME280;59205;50.610;12.638;2022-08-07T06:19:48;96535.47;;;14.59;56.67
71392;BME280;59205;50.610;12.638;2022-08-07T06:22:15;96536.28;;;14.83;55.82
71392;BME280;59205;50.610;12.638;2022-08-07T06:24:41;96531.75;;;15.03;56.31
71392;BME280;59205;50.610;12.638;2022-08-07T06:27:07;96541.06;;;14.97;54.91
71392;BME280;59205;50.610;12.638;2022-08-07T06:29:32;96532.13;;;15.43;55.46
71392;BME280;59205;50.610;12.638;2022-08-07T06:31:58;96532.81;;;15.67;55.19
71392;BME280;59205;50.610;12.638;2022-08-07T06:34:25;96536.16;;;15.47;54.97
71392;BME280;59205;50.610;12.638;2022-08-07T06:36:50;96533.13;;;16.56;50.89
71392;BME280;59205;50.610;12.638;2022-08-07T06:39:16;96532.88;;;18.19;48.77
71392;BME280;59205;50.610;12.638;2022-08-07T06:41:44;96538.63;;;18.83;46.83
71392;BME280;59205;50.610;12.638;2022-08-07T06:44:11;96535.22;;;19.40;44.83
71392;BME280;59205;50.610;12.638;2022-08-07T06:46:39;96541.13;;;19.97;42.91
71392;BME280;59205;50.610;12.638;2022-08-07T06:49:05;96537.47;;;20.61;41.23
71392;BME280;59205;50.610;12.638;2022-08-07T06:51:33;96537.16;;;19.93;44.73
71392;BME280;59205;50.610;12.638;2022-08-07T06:54:00;96532.72;;;20.72;41.59
71392;BME280;59205;50.610;12.638;2022-08-07T06:56:30;96540.78;;;21.65;40.74
71392;BME280;59205;50.610;12.638;2022-08-07T06:59:09;96531.75;;;23.28;34.75
71392;BME280;59205;50.610;12.638;2022-08-07T07:01:36;96539.06;;;21.51;38.77
71392;BME280;59205;50.610;12.638;2022-08-07T07:04:04;96525.38;;;22.85;36.07
71392;BME280;59205;50.610;12.638;2022-08-07T07:06:31;96534.31;;;23.45;34.30
71392;BME280;59205;50.610;12.638;2022-08-07T07:09:27;96534.16;;;23.37;34.09
71392;BME280;59205;50.610;12.638;2022-08-07T07:14:38;96532.03;;;22.42;38.31
71392;BME280;59205;50.610;12.638;2022-08-07T07:17:11;96530.88;;;23.39;34.39
71392;BME280;59205;50.610;12.638;2022-08-07T07:19:43;96532.25;;;23.51;34.97
71392;BME280;59205;50.610;12.638;2022-08-07T07:22:11;96528.06;;;21.97;37.60
71392;BME280;59205;50.610;12.638;2022-08-07T07:24:39;96535.09;;;24.06;33.51
71392;BME280;59205;50.610;12.638;2022-08-07T07:27:07;96529.03;;;24.57;31.86
71392;BME280;59205;50.610;12.638;2022-08-07T07:29:39;96534.06;;;22.36;35.86
71392;BME280;59205;50.610;12.638;2022-08-07T07:32:11;96534.88;;;22.31;35.95
71392;BME280;59205;50.610;12.638;2022-08-07T07:34:41;96530.06;;;21.40;39.66
71392;BME280;59205;50.610;12.638;2022-08-07T07:37:09;96534.47;;;23.10;36.70
71392;BME280;59205;50.610;12.638;2022-08-07T07:39:37;96524.13;;;24.63;32.69
71392;BME280;59205;50.610;12.638;2022-08-07T07:42:05;96525.09;;;23.61;35.16
71392;BME280;59205;50.610;12.638;2022-08-07T07:44:33;96525.56;;;24.02;34.67
71392;BME280;59205;50.610;12.638;2022-08-07T07:47:01;96516.06;;;25.82;30.92
71392;BME280;59205;50.610;12.638;2022-08-07T07:49:28;96525.53;;;25.27;32.03
71392;BME280;59205;50.610;12.638;2022-08-07T07:51:56;96519.38;;;24.45;33.84
71392;BME280;59205;50.610;12.638;2022-08-07T07:54:23;96515.19;;;25.41;32.27
71392;BME280;59205;50.610;12.638;2022-08-07T07:56:51;96516.72;;;24.97;31.25
71392;BME280;59205;50.610;12.638;2022-08-07T07:59:18;96509.50;;;25.59;30.93
71392;BME280;59205;50.610;12.638;2022-08-07T08:01:46;96514.78;;;25.96;30.35
71392;BME280;59205;50.610;12.638;2022-08-07T08:04:13;96522.31;;;25.62;31.22
71392;BME280;59205;50.610;12.638;2022-08-07T08:06:42;96527.47;;;25.32;30.07
71392;BME280;59205;50.610;12.638;2022-08-07T08:09:09;96522.22;;;25.42;29.68
71392;BME280;59205;50.610;12.638;2022-08-07T08:11:36;96516.81;;;23.98;30.91
71392;BME280;59205;50.610;12.638;2022-08-07T08:14:02;96510.53;;;24.78;31.17
71392;BME280;59205;50.610;12.638;2022-08-07T08:16:36;96509.19;;;25.50;29.92
71392;BME280;59205;50.610;12.638;2022-08-07T08:19:05;96507.44;;;23.21;33.24
71392;BME280;59205;50.610;12.638;2022-08-07T08:21:33;96513.66;;;21.69;34.38
71392;BME280;59205;50.610;12.638;2022-08-07T08:24:19;96504.38;;;20.82;36.40
71392;BME280;59205;50.610;12.638;2022-08-07T08:27:05;96510.75;;;21.97;34.89
71392;BME280;59205;50.610;12.638;2022-08-07T08:29:37;96516.94;;;20.62;37.77
71392;BME280;59205;50.610;12.638;2022-08-07T08:32:05;96522.19;;;20.81;37.55
71392;BME280;59205;50.610;12.638;2022-08-07T08:34:34;96519.19;;;20.52;40.41
71392;BME280;59205;50.610;12.638;2022-08-07T08:37:02;96512.84;;;19.75;41.66
71392;BME280;59205;50.610;12.638;2022-08-07T08:39:29;96514.44;;;20.36;40.76
71392;BME280;59205;50.610;12.638;2022-08-07T08:42:05;96513.03;;;21.41;36.57
71392;BME280;59205;50.610;12.638;2022-08-07T08:44:33;96513.97;;;21.49;37.06
71392;BME280;59205;50.610;12.638;2022-08-07T08:50:13;96512.25;;;24.32;35.05
71392;BME280;59205;50.610;12.638;2022-08-07T08:52:52;96501.44;;;22.35;36.54
71392;BME280;59205;50.610;12.638;2022-08-07T08:55:39;96510.47;;;21.49;36.05
71392;BME280;59205;50.610;12.638;2022-08-07T09:03:58;96512.22;;;25.98;30.08
71392;BME280;59205;50.610;12.638;2022-08-07T09:06:59;96507.94;;;24.67;30.64
71392;BME280;59205;50.610;12.638;2022-08-07T09:15:33;96501.19;;;21.46;36.66
71392;BME280;59205;50.610;12.638;2022-08-07T09:21:25;96495.53;;;21.22;35.80
71392;BME280;59205;50.610;12.638;2022-08-07T09:29:31;96482.59;;;22.68;35.77
71392;BME280;59205;50.610;12.638;2022-08-07T09:34:43;96479.97;;;25.95;28.94
71392;BME280;59205;50.610;12.638;2022-08-07T09:37:42;96484.06;;;25.16;29.65
71392;BME280;59205;50.610;12.638;2022-08-07T09:40:31;96480.31;;;27.50;27.69
71392;BME280;59205;50.610;12.638;2022-08-07T09:51:28;96458.97;;;25.61;31.28
71392;BME280;59205;50.610;12.638;2022-08-07T09:53:58;96461.13;;;26.01;31.82
71392;BME280;59205;50.610;12.638;2022-08-07T10:00:07;96446.09;;;26.37;27.92
71392;BME280;59205;50.610;12.638;2022-08-07T10:08:03;96446.63;;;25.82;30.25
71392;BME280;59205;50.610;12.638;2022-08-07T10:32:26;96427.56;;;22.11;36.56
71392;BME280;59205;50.610;12.638;2022-08-07T10:35:20;96419.94;;;22.76;33.33
71392;BME280;59205;50.610;12.638;2022-08-07T10:43:14;96420.91;;;25.35;29.21
71392;BME280;59205;50.610;12.638;2022-08-07T10:45:51;96408.84;;;25.33;29.50
71392;BME280;59205;50.610;12.638;2022-08-07T10:48:44;96409.38;;;25.31;28.72
71392;BME280;59205;50.610;12.638;2022-08-07T10:57:07;96396.66;;;26.92;27.03
71392;BME280;59205;50.610;12.638;2022-08-07T11:00:01;96393.97;;;26.51;29.03
71392;BME280;59205;50.610;12.638;2022-08-07T11:05:31;96394.75;;;27.58;26.42
71392;BME280;59205;50.610;12.638;2022-08-07T11:08:19;96384.53;;;28.33;25.85
71392;BME280;59205;50.610;12.638;2022-08-07T11:11:02;96382.38;;;26.95;26.65
71392;BME280;59205;50.610;12.638;2022-08-07T11:16:18;96387.16;;;26.59;29.09
71392;BME280;59205;50.610;12.638;2022-08-07T11:18:49;96374.75;;;27.74;24.73
71392;BME280;59205;50.610;12.638;2022-08-07T11:21:32;96382.13;;;27.57;25.08
71392;BME280;59205;50.610;12.638;2022-08-07T11:29:09;96365.44;;;27.14;28.99
71392;BME280;59205;50.610;12.638;2022-08-07T11:32:11;96351.88;;;25.86;27.75
71392;BME280;59205;50.610;12.638;2022-08-07T11:34:49;96357.53;;;27.40;26.08
71392;BME280;59205;50.610;12.638;2022-08-07T11:37:25;96361.53;;;27.75;25.06
71392;BME280;59205;50.610;12.638;2022-08-07T11:40:42;96349.88;;;28.58;24.14
71392;BME280;59205;50.610;12.638;2022-08-07T11:43:21;96347.19;;;26.70;28.60
71392;BME280;59205;50.610;12.638;2022-08-07T11:46:21;96347.53;;;26.46;26.49
71392;BME280;59205;50.610;12.638;2022-08-07T11:52:18;96343.91;;;27.22;25.56
71392;BME280;59205;50.610;12.638;2022-08-07T11:57:53;96333.22;;;27.41;26.12
71392;BME280;59205;50.610;12.638;2022-08-07T12:00:31;96336.25;;;26.79;26.56
71392;BME280;59205;50.610;12.638;2022-08-07T12:09:16;96322.38;;;27.15;26.67
71392;BME280;59205;50.610;12.638;2022-08-07T12:11:52;96318.16;;;27.36;27.22
71392;BME280;59205;50.610;12.638;2022-08-07T12:14:24;96316.19;;;27.09;26.36
71392;BME280;59205;50.610;12.638;2022-08-07T12:17:05;96320.28;;;26.17;29.58
71392;BME280;59205;50.610;12.638;2022-08-07T12:19:44;96315.69;;;27.91;25.67
71392;BME280;59205;50.610;12.638;2022-08-07T12:22:21;96327.22;;;26.58;29.93
71392;BME280;59205;50.610;12.638;2022-08-07T12:27:40;96322.28;;;27.00;28.90
71392;BME280;59205;50.610;12.638;2022-08-07T12:30:08;96323.00;;;27.36;26.90
71392;BME280;59205;50.610;12.638;2022-08-07T12:32:42;96311.81;;;26.85;26.47
71392;BME280;59205;50.610;12.638;2022-08-07T12:35:11;96305.34;;;26.55;31.47
71392;BME280;59205;50.610;12.638;2022-08-07T12:37:39;96301.00;;;26.19;27.08
71392;BME280;59205;50.610;12.638;2022-08-07T12:40:07;96303.16;;;26.33;26.45
71392;BME280;59205;50.610;12.638;2022-08-07T12:42:33;96308.63;;;27.90;25.09
71392;BME280;59205;50.610;12.638;2022-08-07T12:45:07;96300.25;;;26.74;27.00
71392;BME280;59205;50.610;12.638;2022-08-07T12:47:51;96305.78;;;27.60;25.58
71392;BME280;59205;50.610;12.638;2022-08-07T12:50:28;96301.25;;;24.66;28.05
71392;BME280;59205;50.610;12.638;2022-08-07T12:53:26;96298.09;;;25.83;28.60
71392;BME280;59205;50.610;12.638;2022-08-07T12:56:18;96300.38;;;24.84;30.78
71392;BME280;59205;50.610;12.638;2022-08-07T12:58:49;96296.06;;;25.63;31.74
71392;BME280;59205;50.610;12.638;2022-08-07T13:12:21;96278.88;;;25.11;30.59
71392;BME280;59205;50.610;12.638;2022-08-07T13:17:45;96280.56;;;25.47;31.04
71392;BME280;59205;50.610;12.638;2022-08-07T13:20:22;96267.69;;;25.03;34.18
71392;BME280;59205;50.610;12.638;2022-08-07T13:23:23;96272.19;;;25.27;29.45
71392;BME280;59205;50.610;12.638;2022-08-07T13:26:00;96264.53;;;24.47;33.05
71392;BME280;59205;50.610;12.638;2022-08-07T13:28:31;96263.84;;;24.93;30.96
71392;BME280;59205;50.610;12.638;2022-08-07T13:31:12;96271.47;;;25.13;28.83
71392;BME280;59205;50.610;12.638;2022-08-07T13:33:49;96261.38;;;25.03;29.31
71392;BME280;59205;50.610;12.638;2022-08-07T13:36:22;96262.63;;;24.81;29.46
71392;BME280;59205;50.610;12.638;2022-08-07T13:39:14;96255.69;;;23.21;31.98
71392;BME280;59205;50.610;12.638;2022-08-07T13:41:43;96251.13;;;24.13;31.47
71392;BME280;59205;50.610;12.638;2022-08-07T13:44:18;96251.84;;;25.11;29.33
71392;BME280;59205;50.610;12.638;2022-08-07T13:46:46;96256.22;;;24.73;30.81
71392;BME280;59205;50.610;12.638;2022-08-07T13:49:16;96247.38;;;25.08;29.83
71392;BME280;59205;50.610;12.638;2022-08-07T13:51:44;96241.53;;;24.01;30.84
71392;BME280;59205;50.610;12.638;2022-08-07T13:54:12;96237.06;;;24.62;30.23
71392;BME280;59205;50.610;12.638;2022-08-07T13:56:40;96238.25;;;25.00;30.43
71392;BME280;59205;50.610;12.638;2022-08-07T13:59:10;96234.81;;;24.94;29.69
71392;BME280;59205;50.610;12.638;2022-08-07T14:01:43;96233.88;;;24.58;32.47
71392;BME280;59205;50.610;12.638;2022-08-07T14:04:13;96232.13;;;24.68;30.03
71392;BME280;59205;50.610;12.638;2022-08-07T14:06:43;96224.28;;;24.21;30.10
71392;BME280;59205;50.610;12.638;2022-08-07T14:09:15;96219.88;;;24.38;30.62
71392;BME280;59205;50.610;12.638;2022-08-07T14:11:45;96215.84;;;24.13;30.57
71392;BME280;59205;50.610;12.638;2022-08-07T14:14:14;96222.44;;;23.97;30.18
71392;BME280;59205;50.610;12.638;2022-08-07T14:16:44;96225.13;;;24.16;30.98
71392;BME280;59205;50.610;12.638;2022-08-07T14:19:22;96228.22;;;24.25;30.03
71392;BME280;59205;50.610;12.638;2022-08-07T14:21:54;96216.13;;;23.26;30.06
71392;BME280;59205;50.610;12.638;2022-08-07T14:24:41;96216.84;;;23.27;32.11
71392;BME280;59205;50.610;12.638;2022-08-07T14:27:11;96214.75;;;22.83;34.62
71392;BME280;59205;50.610;12.638;2022-08-07T14:29:45;96212.22;;;22.66;35.22
71392;BME280;59205;50.610;12.638;2022-08-07T14:32:12;96220.75;;;22.50;34.28
71392;BME280;59205;50.610;12.638;2022-08-07T14:34:42;96215.34;;;22.76;34.27
71392;BME280;59205;50.610;12.638;2022-08-07T14:37:10;96219.00;;;22.84;32.97
71392;BME280;59205;50.610;12.638;2022-08-07T14:39:37;96214.84;;;22.77;33.11
71392;BME280;59205;50.610;12.638;2022-08-07T14:42:06;96211.91;;;22.88;31.71
71392;BME280;59205;50.610;12.638;2022-08-07T14:44:34;96206.84;;;22.74;33.41
71392;BME280;59205;50.610;12.638;2022-08-07T14:47:02;96213.84;;;22.93;32.39
71392;BME280;59205;50.610;12.638;2022-08-07T14:49:30;96209.97;;;22.65;33.26
71392;BME280;59205;50.610;12.638;2022-08-07T14:51:58;96206.41;;;22.70;33.16
71392;BME280;59205;50.610;12.638;2022-08-07T14:54:28;96201.75;;;22.78;34.18
71392;BME280;59205;50.610;12.638;2022-08-07T14:56:55;96203.88;;;22.72;32.12
71392;BME280;59205;50.610;12.638;2022-08-07T14:59:22;96206.31;;;22.39;34.11
71392;BME280;59205;50.610;12.638;2022-08-07T15:01:49;96205.31;;;22.36;34.67
71392;BME280;59205;50.610;12.638;2022-08-07T15:04:14;96204.31;;;22.76;33.68
71392;BME280;59205;50.610;12.638;2022-08-07T15:06:42;96204.16;;;22.87;33.01
71392;BME280;59205;50.610;12.638;2022-08-07T15:09:14;96198.66;;;23.00;33.94
71392;BME280;59205;50.610;12.638;2022-08-07T15:11:53;96209.00;;;22.99;33.12
71392;BME280;59205;50.610;12.638;2022-08-07T15:14:24;96211.28;;;22.95;32.68